Time;durP1;ratioP1;P1;durP2;ratioP2;P2;SDS_P1;SDS_P2;PMS_P1;PMS_P2;Temp;Humidity;BMP_temperature;BMP_pressure;BME280_temperature;BME280_humidity;BME280_pressure;Samples;Min_cycle;Max_cycle;Signal;HPM_P1;HPM_P2
2022/03/07 00:01:50;;;;;;;0.50;0.50;;;0.20;56.20;;;;;;4994031;28;20250;-67
2022/03/07 00:04:17;;;;;;;0.50;0.50;;;0.20;56.30;;;;;;4994297;28;20419;-68
2022/03/07 00:06:46;;;;;;;0.50;0.50;;;0.10;56.50;;;;;;4994174;28;20172;-68
2022/03/07 00:09:13;;;;;;;0.40;0.40;;;0.20;56.60;;;;;;4994174;28;20187;-68
2022/03/07 00:11:39;;;;;;;0.82;0.82;;;0.20;56.50;;;;;;4993875;28;20192;-68
2022/03/07 00:14:05;;;;;;;0.50;0.50;;;0.20;56.50;;;;;;4994158;28;20215;-68
2022/03/07 00:16:31;;;;;;;0.50;0.50;;;0.30;56.50;;;;;;4994055;28;20180;-68
2022/03/07 00:18:57;;;;;;;0.60;0.60;;;0.30;56.60;;;;;;4994202;28;20403;-67
2022/03/07 00:21:23;;;;;;;0.50;0.50;;;0.20;56.40;;;;;;4993828;28;20205;-68
2022/03/07 00:23:50;;;;;;;0.30;0.30;;;0.10;56.90;;;;;;4994226;28;20187;-68
2022/03/07 00:26:19;;;;;;;0.40;0.40;;;0.20;56.90;;;;;;4994211;28;20176;-68
2022/03/07 00:28:46;;;;;;;0.40;0.40;;;0.30;56.80;;;;;;4994063;28;20259;-68
2022/03/07 00:31:12;;;;;;;0.40;0.40;;;0.20;56.50;;;;;;4993768;28;20619;-68
2022/03/07 00:33:38;;;;;;;0.40;0.40;;;0.10;56.30;;;;;;4994077;28;20250;-68
2022/03/07 00:36:05;;;;;;;0.40;0.40;;;0.00;56.60;;;;;;4994133;28;20259;-68
2022/03/07 00:38:31;;;;;;;0.35;0.35;;;0.10;56.70;;;;;;4993907;28;20176;-67
2022/03/07 00:40:56;;;;;;;0.40;0.40;;;-0.10;57.00;;;;;;4993698;28;20215;-68
2022/03/07 00:43:22;;;;;;;0.40;0.40;;;0.00;57.30;;;;;;4993841;28;20188;-67
2022/03/07 00:45:49;;;;;;;0.40;0.40;;;0.00;56.80;;;;;;4993811;28;20765;-67
2022/03/07 00:48:16;;;;;;;1.25;1.25;;;-0.30;57.50;;;;;;4993837;28;20195;-68
2022/03/07 00:50:47;;;;;;;0.50;0.50;;;-0.10;57.30;;;;;;4993684;28;20175;-67
2022/03/07 00:53:16;;;;;;;0.40;0.40;;;0.00;57.60;;;;;;4993965;28;20278;-68
2022/03/07 00:55:42;;;;;;;0.40;0.40;;;0.00;57.70;;;;;;4993708;28;20169;-67
2022/03/07 00:58:08;;;;;;;0.50;0.50;;;-0.10;58.50;;;;;;4993843;28;20648;-68
2022/03/07 01:00:34;;;;;;;0.40;0.40;;;0.00;58.10;;;;;;4996603;28;20524;-67
2022/03/07 01:03:00;;;;;;;0.35;0.35;;;0.00;57.90;;;;;;4979910;28;20204;-68
2022/03/07 01:05:26;;;;;;;0.43;0.43;;;0.00;58.20;;;;;;4997446;28;20176;-68
2022/03/07 01:07:52;;;;;;;0.67;0.67;;;0.00;58.70;;;;;;4997593;28;20525;-68
2022/03/07 01:10:17;;;;;;;0.60;0.60;;;-0.10;58.70;;;;;;4997281;28;20172;-67
2022/03/07 01:12:43;;;;;;;0.50;0.50;;;-0.10;58.80;;;;;;4997297;28;20936;-68
2022/03/07 01:15:10;;;;;;;0.50;0.50;;;-0.10;58.70;;;;;;4997142;28;20196;-67
2022/03/07 01:17:37;;;;;;;0.50;0.50;;;0.00;58.80;;;;;;4997391;28;20538;-68
2022/03/07 01:20:05;;;;;;;0.40;0.40;;;0.00;59.00;;;;;;4996951;28;20177;-67
2022/03/07 01:22:31;;;;;;;0.50;0.50;;;-0.10;59.10;;;;;;4997219;28;20819;-68
2022/03/07 01:24:57;;;;;;;0.60;0.60;;;-0.20;59.40;;;;;;4997239;28;20204;-68
2022/03/07 01:27:23;;;;;;;0.50;0.50;;;-0.20;59.60;;;;;;4996214;28;20545;-68
2022/03/07 01:29:48;;;;;;;0.40;0.40;;;-0.30;59.80;;;;;;4997157;28;20179;-68
2022/03/07 01:32:14;;;;;;;0.40;0.40;;;-0.40;59.70;;;;;;4996711;28;20585;-67
2022/03/07 01:34:40;;;;;;;0.50;0.50;;;-0.50;59.60;;;;;;4996804;28;20227;-67
2022/03/07 01:37:05;;;;;;;0.50;0.50;;;-0.50;60.00;;;;;;4996758;28;20168;-68
2022/03/07 01:39:31;;;;;;;0.70;0.70;;;-0.40;60.80;;;;;;4996902;28;20912;-68
2022/03/07 01:41:57;;;;;;;0.60;0.60;;;-0.60;60.80;;;;;;4996658;28;20196;-68
2022/03/07 01:44:27;;;;;;;0.40;0.40;;;-0.80;61.00;;;;;;4996819;28;20481;-68
2022/03/07 01:46:53;;;;;;;0.50;0.50;;;-0.80;61.50;;;;;;4979231;28;20544;-67
2022/03/07 01:49:19;;;;;;;0.43;0.43;;;-0.70;62.00;;;;;;4996633;28;20200;-68
2022/03/07 01:51:46;;;;;;;0.50;0.50;;;-0.60;61.60;;;;;;4996378;28;20176;-67
2022/03/07 01:54:17;;;;;;;0.50;0.50;;;-0.60;61.20;;;;;;4996457;28;20650;-67
2022/03/07 01:56:45;;;;;;;0.70;0.70;;;-0.60;61.00;;;;;;4996747;28;20172;-68
2022/03/07 01:59:12;;;;;;;0.60;0.60;;;-0.80;60.70;;;;;;4996609;28;20259;-67
2022/03/07 02:01:39;;;;;;;0.47;0.47;;;-0.80;61.30;;;;;;4996164;28;20565;-67
2022/03/07 02:04:05;;;;;;;0.50;0.50;;;-0.90;62.00;;;;;;4996277;28;20192;-68
2022/03/07 02:06:31;;;;;;;0.40;0.40;;;-0.90;60.70;;;;;;4996796;28;20172;-68
2022/03/07 02:08:57;;;;;;;0.50;0.50;;;-0.90;60.20;;;;;;4996382;28;20314;-68
2022/03/07 02:11:24;;;;;;;0.80;0.80;;;-0.80;60.40;;;;;;4995179;28;20577;-67
2022/03/07 02:13:51;;;;;;;0.45;0.45;;;-1.00;60.30;;;;;;4996332;28;20199;-68
2022/03/07 02:16:17;;;;;;;0.45;0.45;;;-1.20;60.50;;;;;;4996150;28;20176;-68
2022/03/07 02:18:43;;;;;;;0.68;0.68;;;-1.00;61.10;;;;;;4996155;28;20575;-68
2022/03/07 02:21:11;;;;;;;0.50;0.50;;;-0.80;61.20;;;;;;4995982;28;20662;-68
2022/03/07 02:23:37;;;;;;;0.60;0.60;;;-0.80;60.70;;;;;;4996168;28;20232;-67
2022/03/07 02:26:11;;;;;;;1.70;1.60;;;-0.90;59.40;;;;;;4995959;28;20243;-68
2022/03/07 02:28:39;;;;;;;0.60;0.60;;;-0.90;59.70;;;;;;4978617;28;20638;-68
2022/03/07 02:31:05;;;;;;;0.40;0.40;;;-0.80;59.30;;;;;;4978227;28;20315;-68
2022/03/07 02:33:30;;;;;;;0.80;0.80;;;-1.00;59.10;;;;;;4995734;28;20283;-68
2022/03/07 02:35:56;;;;;;;0.50;0.50;;;-1.10;59.30;;;;;;4995748;28;20313;-67
2022/03/07 02:38:22;;;;;;;0.40;0.40;;;-1.20;59.90;;;;;;4995833;28;20176;-67
2022/03/07 02:40:48;;;;;;;0.50;0.50;;;-1.10;60.10;;;;;;4995455;28;20258;-68
2022/03/07 02:43:15;;;;;;;0.40;0.40;;;-1.30;60.90;;;;;;4995523;28;20426;-67
2022/03/07 02:45:41;;;;;;;0.60;0.60;;;-1.20;61.90;;;;;;4995620;28;20173;-67
2022/03/07 02:48:07;;;;;;;0.60;0.60;;;-1.20;61.30;;;;;;4995637;28;20187;-67
2022/03/07 02:50:32;;;;;;;0.43;0.43;;;-1.20;60.60;;;;;;4995316;28;20176;-68
2022/03/07 02:52:58;;;;;;;0.63;0.63;;;-0.80;67.20;;;;;;4995518;28;20408;-67
2022/03/07 02:55:24;;;;;;;0.50;0.50;;;-0.80;60.70;;;;;;4995382;28;20638;-68
2022/03/07 02:57:50;;;;;;;2.07;2.07;;;-0.90;60.20;;;;;;4977832;28;20176;-68
2022/03/07 03:00:16;;;;;;;0.60;0.60;;;-0.90;60.10;;;;;;4995146;28;20416;-68
2022/03/07 03:02:41;;;;;;;0.60;0.60;;;-0.80;60.40;;;;;;4977773;28;20870;-67
2022/03/07 03:05:08;;;;;;;0.57;0.57;;;-0.80;61.20;;;;;;4995095;28;20430;-68
2022/03/07 03:07:34;;;;;;;0.50;0.50;;;-0.80;61.80;;;;;;4995320;28;20520;-67
2022/03/07 03:10:00;;;;;;;0.57;0.57;;;-0.80;61.30;;;;;;4995074;28;20173;-68
2022/03/07 03:12:26;;;;;;;0.60;0.60;;;-0.80;62.20;;;;;;4994906;28;20430;-67
2022/03/07 03:14:53;;;;;;;0.52;0.52;;;-0.80;61.30;;;;;;4994930;28;20263;-67
2022/03/07 03:17:19;;;;;;;0.50;0.50;;;-0.80;61.20;;;;;;4995029;28;20688;-68
2022/03/07 03:19:44;;;;;;;0.50;0.50;;;-0.90;61.30;;;;;;4995125;28;20267;-67
2022/03/07 03:22:10;;;;;;;0.40;0.40;;;-0.90;61.30;;;;;;4994779;28;20454;-67
2022/03/07 03:24:37;;;;;;;1.37;1.37;;;-1.00;61.00;;;;;;4994964;28;20494;-67
2022/03/07 03:27:03;;;;;;;0.65;0.65;;;-0.90;61.10;;;;;;4994796;28;20168;-68
2022/03/07 03:29:29;;;;;;;0.60;0.60;;;-0.90;61.10;;;;;;4994824;28;20234;-68
2022/03/07 03:31:55;;;;;;;0.50;0.50;;;-1.10;60.90;;;;;;4994533;28;20172;-67
2022/03/07 03:34:20;;;;;;;0.53;0.53;;;-1.30;61.80;;;;;;4994612;28;20466;-67
2022/03/07 03:36:46;;;;;;;1.33;1.33;;;-1.30;62.70;;;;;;4994774;28;20189;-67
2022/03/07 03:39:12;;;;;;;0.60;0.60;;;-1.10;62.20;;;;;;4994767;28;20598;-67
2022/03/07 03:41:37;;;;;;;0.50;0.50;;;-1.10;61.80;;;;;;4994380;28;20535;-67
2022/03/07 03:44:04;;;;;;;0.50;0.50;;;-1.20;61.20;;;;;;4994452;28;20274;-68
2022/03/07 03:46:30;;;;;;;0.50;0.50;;;-1.20;61.80;;;;;;4994586;28;20585;-67
2022/03/07 03:48:56;;;;;;;0.50;0.50;;;-1.20;61.70;;;;;;4994557;28;20265;-68
2022/03/07 03:51:21;;;;;;;0.50;0.50;;;-1.10;61.90;;;;;;4994226;28;20420;-67
2022/03/07 03:53:47;;;;;;;0.70;0.70;;;-1.10;61.30;;;;;;4994374;28;20196;-67
2022/03/07 03:56:12;;;;;;;0.50;0.50;;;-1.20;61.90;;;;;;4994611;28;20713;-67
2022/03/07 03:58:38;;;;;;;0.50;0.50;;;-1.10;61.40;;;;;;4994727;28;20180;-67
2022/03/07 04:01:04;;;;;;;0.70;0.70;;;-1.40;61.20;;;;;;4994057;28;20289;-67
2022/03/07 04:03:30;;;;;;;0.60;0.60;;;-1.30;61.20;;;;;;4994125;28;20203;-68
2022/03/07 04:05:55;;;;;;;0.63;0.63;;;-1.30;62.00;;;;;;4994183;28;20589;-68
2022/03/07 04:08:22;;;;;;;0.53;0.53;;;-1.30;61.90;;;;;;4994280;28;20490;-67
2022/03/07 04:10:47;;;;;;;0.50;0.50;;;-1.20;62.00;;;;;;4994287;28;20622;-68
2022/03/07 04:13:13;;;;;;;1.90;1.90;;;-1.20;61.80;;;;;;4994008;28;20217;-67
2022/03/07 04:15:39;;;;;;;0.60;0.60;;;-1.40;62.10;;;;;;4994062;28;20168;-67
2022/03/07 04:18:06;;;;;;;0.50;0.50;;;-1.30;62.10;;;;;;4994133;28;20446;-67
2022/03/07 04:20:33;;;;;;;0.80;0.80;;;-1.30;61.20;;;;;;4993972;28;20172;-67
2022/03/07 04:23:00;;;;;;;0.40;0.40;;;-1.60;69.70;;;;;;4993998;28;20199;-67
2022/03/07 04:25:26;;;;;;;0.60;0.60;;;-1.60;61.90;;;;;;4993981;28;20187;-68
2022/03/07 04:27:51;;;;;;;0.40;0.40;;;-1.40;63.10;;;;;;4994091;28;20172;-67
2022/03/07 04:30:17;;;;;;;0.57;0.57;;;-1.30;62.70;;;;;;4993812;28;20174;-68
2022/03/07 04:32:43;;;;;;;0.70;0.70;;;-1.20;62.30;;;;;;4994052;28;20219;-67
2022/03/07 04:35:11;;;;;;;0.60;0.60;;;-1.20;62.00;;;;;;4996388;28;20674;-67
2022/03/07 04:37:40;;;;;;;0.68;0.68;;;-1.40;61.30;;;;;;4998081;28;20586;-67
2022/03/07 04:40:10;;;;;;;0.45;0.45;;;-1.80;62.00;;;;;;4997708;28;20170;-67
2022/03/07 04:42:36;;;;;;;1.05;1.05;;;-1.50;62.90;;;;;;4997996;28;20199;-67
2022/03/07 04:45:02;;;;;;;0.50;0.50;;;-1.50;62.00;;;;;;4997695;28;20194;-67
2022/03/07 04:47:27;;;;;;;0.40;0.40;;;-1.40;62.00;;;;;;4997876;28;20223;-67
2022/03/07 04:49:53;;;;;;;0.60;0.60;;;-1.30;62.50;;;;;;4997685;28;20177;-68
2022/03/07 04:52:18;;;;;;;0.57;0.57;;;-1.30;61.80;;;;;;4998051;28;20638;-67
2022/03/07 04:54:44;;;;;;;0.70;0.70;;;-1.20;62.30;;;;;;4997600;28;20184;-67
2022/03/07 04:57:10;;;;;;;3.67;3.50;;;-1.10;61.00;;;;;;4980191;28;20702;-68
2022/03/07 04:59:35;;;;;;;0.50;0.50;;;-1.10;61.60;;;;;;4997623;28;20657;-67
2022/03/07 05:02:01;;;;;;;0.70;0.70;;;-1.50;61.50;;;;;;4979765;28;20210;-68
2022/03/07 05:04:27;;;;;;;0.60;0.60;;;-1.40;61.80;;;;;;4997333;28;20223;-68
2022/03/07 05:06:52;;;;;;;0.70;0.70;;;-1.30;62.90;;;;;;4997375;28;20179;-68
2022/03/07 05:09:18;;;;;;;1.43;1.43;;;-1.20;63.20;;;;;;4997362;28;20169;-67
2022/03/07 05:11:44;;;;;;;0.60;0.60;;;-1.20;62.90;;;;;;4996958;28;20188;-68
2022/03/07 05:14:09;;;;;;;0.70;0.70;;;-1.20;62.60;;;;;;4997376;28;20211;-68
2022/03/07 05:16:35;;;;;;;0.60;0.60;;;-1.30;62.40;;;;;;4997264;28;20203;-68
2022/03/07 05:19:00;;;;;;;0.50;0.50;;;-1.30;63.00;;;;;;4997359;28;20172;-67
2022/03/07 05:21:26;;;;;;;0.50;0.50;;;-1.30;62.80;;;;;;4996787;28;20265;-67
2022/03/07 05:23:52;;;;;;;0.50;0.50;;;-1.30;62.90;;;;;;4996981;28;20184;-67
2022/03/07 05:26:17;;;;;;;0.40;0.40;;;-1.30;62.70;;;;;;4997391;28;20243;-66
2022/03/07 05:28:43;;;;;;;0.67;0.67;;;-1.30;62.80;;;;;;4997055;28;20178;-67
2022/03/07 05:31:12;;;;;;;0.70;0.70;;;-1.50;62.80;;;;;;4996922;28;20176;-67
2022/03/07 05:33:38;;;;;;;0.50;0.50;;;-1.50;63.30;;;;;;4996980;28;20236;-67
2022/03/07 05:36:05;;;;;;;0.63;0.63;;;-1.80;62.70;;;;;;4997041;28;20183;-67
2022/03/07 05:38:31;;;;;;;0.63;0.63;;;-1.70;64.00;;;;;;4996791;28;20403;-68
2022/03/07 05:40:57;;;;;;;0.60;0.60;;;-1.70;64.10;;;;;;4996623;28;20188;-66
2022/03/07 05:43:22;;;;;;;0.60;0.60;;;-1.70;63.70;;;;;;4979208;28;20192;-67
2022/03/07 05:45:48;;;;;;;0.60;0.60;;;-1.60;64.00;;;;;;4995640;28;20411;-67
2022/03/07 05:48:14;;;;;;;0.73;0.73;;;-1.50;64.30;;;;;;4996828;28;20226;-67
2022/03/07 05:50:41;;;;;;;0.60;0.60;;;-1.80;64.20;;;;;;4996381;28;20693;-68
2022/03/07 05:53:07;;;;;;;0.60;0.60;;;-1.80;72.40;;;;;;4996504;28;20173;-67
2022/03/07 05:55:33;;;;;;;0.60;0.60;;;-1.80;65.10;;;;;;4996673;28;20176;-67
2022/03/07 05:57:59;;;;;;;0.80;0.80;;;-1.90;65.50;;;;;;4996589;28;20177;-68
2022/03/07 06:00:26;;;;;;;0.70;0.70;;;-1.80;65.00;;;;;;4996430;28;20246;-67
2022/03/07 06:02:52;;;;;;;0.60;0.60;;;-2.20;71.90;;;;;;4996376;28;20330;-68
2022/03/07 06:05:18;;;;;;;0.70;0.70;;;-1.70;64.30;;;;;;4996263;28;20180;-67
2022/03/07 06:07:43;;;;;;;0.60;0.60;;;-1.50;64.20;;;;;;4996705;28;20175;-68
2022/03/07 06:10:09;;;;;;;0.50;0.50;;;-1.50;63.60;;;;;;4996095;28;20414;-67
2022/03/07 06:12:36;;;;;;;0.50;0.50;;;-1.50;63.90;;;;;;4996226;28;20200;-67
2022/03/07 06:15:03;;;;;;;0.68;0.68;;;-1.40;63.70;;;;;;4996092;28;20199;-67
2022/03/07 06:17:31;;;;;;;0.65;0.65;;;-1.30;63.60;;;;;;4996244;28;20199;-67
2022/03/07 06:19:57;;;;;;;0.57;0.57;;;-1.20;62.70;;;;;;4995879;28;20183;-68
2022/03/07 06:22:22;;;;;;;0.55;0.55;;;-1.20;63.30;;;;;;4995969;28;20196;-68
2022/03/07 06:24:48;;;;;;;0.60;0.60;;;-1.20;62.70;;;;;;4995887;28;20184;-68
2022/03/07 06:27:14;;;;;;;0.50;0.50;;;-1.10;61.70;;;;;;4996003;28;20916;-68
2022/03/07 06:29:40;;;;;;;0.70;0.70;;;-1.10;61.00;;;;;;4996075;28;20181;-67
2022/03/07 06:32:07;;;;;;;0.70;0.70;;;-1.00;61.30;;;;;;4995813;28;20215;-67
2022/03/07 06:34:33;;;;;;;0.80;0.80;;;-1.00;61.00;;;;;;4995660;28;20435;-67
2022/03/07 06:37:00;;;;;;;0.50;0.50;;;-1.30;60.20;;;;;;4995931;28;20201;-67
2022/03/07 06:39:27;;;;;;;0.47;0.47;;;-1.40;60.20;;;;;;4995767;28;20176;-67
2022/03/07 06:41:54;;;;;;;0.47;0.47;;;-1.20;61.30;;;;;;4995451;28;20203;-67
2022/03/07 06:44:20;;;;;;;0.60;0.60;;;-1.00;60.60;;;;;;4995517;28;20275;-67
2022/03/07 06:46:46;;;;;;;0.63;0.63;;;-1.00;60.40;;;;;;4995519;28;20259;-68
2022/03/07 06:49:11;;;;;;;0.50;0.50;;;-0.80;60.40;;;;;;4995534;28;20407;-67
2022/03/07 06:51:37;;;;;;;0.80;0.80;;;-0.70;60.40;;;;;;4995379;28;20255;-68
2022/03/07 06:54:04;;;;;;;0.60;0.60;;;-0.90;60.60;;;;;;4995401;28;20195;-67
2022/03/07 06:56:29;;;;;;;0.45;0.45;;;-0.90;60.90;;;;;;4995210;28;20195;-68
2022/03/07 06:58:55;;;;;;;0.50;0.50;;;-1.20;59.30;;;;;;4995248;28;20168;-67
2022/03/07 07:01:21;;;;;;;0.40;0.40;;;-1.00;59.80;;;;;;4995055;28;20196;-67
2022/03/07 07:03:46;;;;;;;0.57;0.57;;;-0.80;60.40;;;;;;4995150;28;20430;-68
2022/03/07 07:06:13;;;;;;;0.40;0.40;;;-0.50;59.70;;;;;;4977727;28;20262;-67
2022/03/07 07:08:39;;;;;;;0.50;0.50;;;-0.60;58.90;;;;;;4995197;28;20569;-67
2022/03/07 07:11:04;;;;;;;0.43;0.43;;;-0.80;58.70;;;;;;4994768;28;20177;-67
2022/03/07 07:13:30;;;;;;;0.60;0.60;;;-1.10;59.50;;;;;;4995138;28;20960;-68
2022/03/07 07:15:56;;;;;;;0.40;0.40;;;-0.90;61.30;;;;;;4994878;28;20430;-67
2022/03/07 07:18:23;;;;;;;0.40;0.40;;;-0.20;60.90;;;;;;4994879;28;20172;-68
2022/03/07 07:20:52;;;;;;;0.40;0.40;;;0.70;58.10;;;;;;4994856;28;20176;-67
2022/03/07 07:23:21;;;;;;;0.30;0.30;;;2.10;57.20;;;;;;4994827;28;20210;-67
2022/03/07 07:25:48;;;;;;;0.30;0.30;;;4.40;52.30;;;;;;4994734;28;20255;-67
2022/03/07 07:28:14;;;;;;;0.35;0.35;;;6.20;47.10;;;;;;4977441;28;20707;-68
2022/03/07 07:30:39;;;;;;;0.30;0.30;;;6.30;44.30;;;;;;4994552;28;20172;-68
2022/03/07 07:33:06;;;;;;;0.33;0.33;;;5.70;48.80;;;;;;4994015;28;21006;-68
2022/03/07 07:35:34;;;;;;;0.30;0.30;;;5.70;45.00;;;;;;4994650;28;20415;-68
2022/03/07 07:38:00;;;;;;;0.40;0.40;;;6.00;45.50;;;;;;4994590;28;20189;-68
2022/03/07 07:40:26;;;;;;;0.40;0.40;;;7.10;43.20;;;;;;4994534;28;20175;-67
2022/03/07 07:42:52;;;;;;;0.50;0.50;;;8.50;43.90;;;;;;4994308;28;20207;-68
2022/03/07 07:45:17;;;;;;;0.40;0.40;;;8.50;40.90;;;;;;4994487;28;20176;-67
2022/03/07 07:47:43;;;;;;;0.53;0.53;;;8.30;40.30;;;;;;4994473;28;20184;-68
2022/03/07 07:50:09;;;;;;;0.40;0.40;;;9.00;39.30;;;;;;4994335;28;20630;-69
2022/03/07 07:52:36;;;;;;;0.30;0.30;;;9.80;38.70;;;;;;4994423;28;20257;-68
2022/03/07 07:55:02;;;;;;;0.40;0.40;;;9.60;36.70;;;;;;4994258;28;20205;-68
2022/03/07 07:57:28;;;;;;;0.70;0.55;;;9.20;37.00;;;;;;4994386;28;20225;-68
2022/03/07 07:59:53;;;;;;;0.50;0.50;;;9.10;37.60;;;;;;4994370;28;20183;-68
2022/03/07 08:02:19;;;;;;;0.40;0.40;;;10.10;36.60;;;;;;4994246;28;20203;-68
2022/03/07 08:04:45;;;;;;;0.50;0.50;;;9.60;36.30;;;;;;4994199;28;20194;-67
2022/03/07 08:07:10;;;;;;;0.30;0.30;;;10.10;35.60;;;;;;4994412;28;20174;-69
2022/03/07 08:09:36;;;;;;;0.80;0.80;;;11.20;34.50;;;;;;4993667;28;20187;-68
2022/03/07 08:12:02;;;;;;;0.30;0.30;;;10.80;34.00;;;;;;4993918;28;20195;-68
2022/03/07 08:14:28;;;;;;;0.30;0.30;;;10.30;34.20;;;;;;4994001;28;20203;-68
2022/03/07 08:16:54;;;;;;;0.40;0.40;;;10.20;34.30;;;;;;4994086;28;20186;-69
2022/03/07 08:19:19;;;;;;;0.40;0.40;;;8.70;36.00;;;;;;4994098;28;20178;-68
2022/03/07 08:21:45;;;;;;;0.40;0.40;;;8.30;37.70;;;;;;4993895;28;20561;-68
2022/03/07 08:24:11;;;;;;;0.40;0.40;;;9.20;37.30;;;;;;4994085;28;20195;-69
2022/03/07 08:26:38;;;;;;;0.30;0.30;;;10.10;35.10;;;;;;4993903;28;20179;-69
2022/03/07 08:29:04;;;;;;;0.60;0.60;;;11.10;33.60;;;;;;4993943;28;20178;-68
2022/03/07 08:31:30;;;;;;;0.30;0.30;;;11.10;33.00;;;;;;4993842;28;20194;-68
2022/03/07 08:33:56;;;;;;;0.40;0.40;;;10.90;33.00;;;;;;4994078;28;20198;-68
2022/03/07 08:36:22;;;;;;;0.40;0.40;;;11.60;33.70;;;;;;4994078;28;20168;-68
2022/03/07 08:38:47;;;;;;;0.30;0.30;;;12.00;32.00;;;;;;4994049;28;20283;-69
2022/03/07 08:41:13;;;;;;;0.30;0.30;;;12.70;31.30;;;;;;4993609;28;20506;-68
2022/03/07 08:43:40;;;;;;;1.17;1.17;;;11.30;31.10;;;;;;4993721;28;20674;-68
2022/03/07 08:46:05;;;;;;;0.40;0.40;;;10.70;33.30;;;;;;4976344;28;20611;-69
2022/03/07 08:48:31;;;;;;;0.30;0.30;;;9.70;34.10;;;;;;4993817;28;20262;-68
2022/03/07 08:50:57;;;;;;;2.17;1.27;;;9.40;35.40;;;;;;4993561;28;20186;-68
2022/03/07 08:53:23;;;;;;;0.30;0.30;;;8.80;36.40;;;;;;4993879;28;20210;-68
2022/03/07 08:55:48;;;;;;;0.40;0.40;;;10.90;35.40;;;;;;4993629;28;20180;-68
2022/03/07 08:58:14;;;;;;;0.30;0.30;;;11.10;32.90;;;;;;4993934;28;20258;-69
2022/03/07 09:00:40;;;;;;;0.30;0.30;;;10.50;32.60;;;;;;4993561;28;20297;-68
2022/03/07 09:03:05;;;;;;;0.73;0.73;;;10.40;35.00;;;;;;4993588;28;20208;-68
2022/03/07 09:05:31;;;;;;;0.33;0.33;;;10.00;32.10;;;;;;4993663;28;20179;-69
2022/03/07 09:07:57;;;;;;;0.47;0.47;;;8.70;35.10;;;;;;4993781;28;20500;-69
2022/03/07 09:10:23;;;;;;;0.60;0.60;;;8.80;36.30;;;;;;4993594;28;20178;-69
2022/03/07 09:12:49;;;;;;;0.30;0.30;;;8.50;35.80;;;;;;4993436;28;20677;-68
2022/03/07 09:15:15;;;;;;;0.93;0.65;;;8.90;36.70;;;;;;4993715;28;20406;-68
2022/03/07 09:17:42;;;;;;;0.47;0.47;;;10.40;34.90;;;;;;4993614;28;20179;-69
2022/03/07 09:20:08;;;;;;;0.30;0.30;;;11.90;34.50;;;;;;4994274;28;20184;-69
2022/03/07 09:22:35;;;;;;;0.30;0.30;;;13.60;31.30;;;;;;4997186;28;20247;-66
2022/03/07 09:25:03;;;;;;;0.50;0.50;;;15.50;29.10;;;;;;4997033;28;20197;-67
2022/03/07 09:27:29;;;;;;;0.30;0.30;;;16.80;27.50;;;;;;4997271;28;20439;-67
2022/03/07 09:29:55;;;;;;;0.40;0.40;;;17.50;26.60;;;;;;4997061;28;20434;-66
2022/03/07 09:32:20;;;;;;;0.60;0.60;;;17.70;25.50;;;;;;4997121;28;20175;-67
2022/03/07 09:34:46;;;;;;;0.30;0.30;;;17.90;25.50;;;;;;4996901;28;20253;-65
2022/03/07 09:37:12;;;;;;;2.40;1.07;;;17.70;25.10;;;;;;4997051;28;20171;-66
2022/03/07 09:39:38;;;;;;;0.70;0.70;;;17.40;24.60;;;;;;4996986;28;20183;-67
2022/03/07 09:42:05;;;;;;;0.60;0.60;;;15.90;25.40;;;;;;4996536;28;20452;-65
2022/03/07 09:44:31;;;;;;;0.40;0.40;;;15.20;25.60;;;;;;4996879;28;20802;-66
2022/03/07 09:46:58;;;;;;;0.30;0.30;;;14.30;26.90;;;;;;4996919;28;20408;-66
2022/03/07 09:49:25;;;;;;;0.30;0.30;;;14.00;27.70;;;;;;4996866;28;20550;-66
2022/03/07 09:51:51;;;;;;;0.67;0.67;;;13.80;28.90;;;;;;4996517;28;20495;-66
2022/03/07 09:54:17;;;;;;;0.30;0.30;;;14.70;28.40;;;;;;4996517;28;20449;-66
2022/03/07 09:56:43;;;;;;;2.10;0.97;;;15.40;27.10;;;;;;4996545;28;20778;-66
2022/03/07 09:59:08;;;;;;;0.30;0.30;;;15.00;27.10;;;;;;4996564;28;20176;-67
2022/03/07 10:01:35;;;;;;;0.40;0.40;;;14.70;27.60;;;;;;4996334;28;20192;-66
2022/03/07 10:04:12;;;;;;;0.30;0.30;;;16.20;27.10;;;;;;4996490;28;20184;-65
2022/03/07 10:06:48;;;;;;;0.40;0.40;;;16.80;26.30;;;;;;4996421;28;20379;-68
2022/03/07 10:09:23;;;;;;;0.40;0.40;;;17.90;25.60;;;;;;4996596;28;20400;-67
2022/03/07 10:11:54;;;;;;;0.50;0.50;;;18.40;25.70;;;;;;4996007;28;20431;-67
2022/03/07 10:14:42;;;;;;;0.40;0.40;;;18.40;24.50;;;;;;4996303;28;20433;-66
2022/03/07 10:17:26;;;;;;;0.30;0.30;;;18.00;24.40;;;;;;4996171;28;20796;-66
2022/03/07 10:19:56;;;;;;;0.50;0.50;;;17.50;25.50;;;;;;4996106;28;20400;-67
2022/03/07 10:22:25;;;;;;;0.67;0.67;;;17.70;25.60;;;;;;4978652;28;20986;-67
2022/03/07 10:24:59;;;;;;;8.43;0.80;;;17.60;25.30;;;;;;4996016;28;20862;-67
2022/03/07 10:27:27;;;;;;;0.50;0.50;;;17.90;24.60;;;;;;4996081;28;20414;-66
2022/03/07 10:29:53;;;;;;;0.40;0.40;;;15.70;25.70;;;;;;4995762;28;20905;-65
2022/03/07 10:32:19;;;;;;;0.60;0.60;;;15.30;26.30;;;;;;4995475;28;20492;-67
2022/03/07 10:34:44;;;;;;;0.90;0.90;;;15.90;26.40;;;;;;4996082;28;20243;-66
2022/03/07 10:37:11;;;;;;;0.30;0.30;;;15.20;26.50;;;;;;4995989;28;20462;-67
2022/03/07 10:39:44;;;;;;;0.30;0.30;;;15.90;26.70;;;;;;4995908;28;20527;-66
2022/03/07 10:42:15;;;;;;;0.30;0.30;;;16.30;26.00;;;;;;4995654;28;20452;-67
2022/03/07 10:44:41;;;;;;;0.30;0.30;;;16.30;26.30;;;;;;4995783;28;20427;-67
2022/03/07 10:47:11;;;;;;;1.07;1.07;;;16.70;25.90;;;;;;4995668;28;20413;-67
2022/03/07 10:49:55;;;;;;;0.30;0.30;;;16.80;25.60;;;;;;4995641;28;20487;-66
2022/03/07 10:52:22;;;;;;;0.30;0.30;;;16.60;25.80;;;;;;4995475;28;20440;-67
2022/03/07 10:54:49;;;;;;;0.30;0.30;;;16.50;25.80;;;;;;4995354;28;20434;-67
2022/03/07 10:57:17;;;;;;;0.40;0.40;;;15.00;25.60;;;;;;4995461;28;20402;-67
2022/03/07 10:59:43;;;;;;;0.90;0.90;;;13.80;27.80;;;;;;4995605;28;20415;-66
2022/03/07 11:02:14;;;;;;;2.20;0.80;;;13.40;27.70;;;;;;4995130;28;20450;-69
2022/03/07 11:04:46;;;;;;;0.60;0.60;;;13.40;27.60;;;;;;4995273;28;20428;-69
2022/03/07 11:07:12;;;;;;;0.30;0.30;;;13.90;27.30;;;;;;4995215;28;20391;-68
2022/03/07 11:09:39;;;;;;;0.53;0.53;;;13.80;27.40;;;;;;4977724;28;20916;-69
2022/03/07 11:12:09;;;;;;;0.60;0.60;;;13.60;27.60;;;;;;4994879;28;20489;-68
2022/03/07 11:14:35;;;;;;;1.57;1.47;;;13.20;27.80;;;;;;4995105;28;20427;-69
2022/03/07 11:17:01;;;;;;;0.30;0.30;;;13.10;28.50;;;;;;4995256;28;20431;-68
2022/03/07 11:19:28;;;;;;;0.33;0.33;;;12.90;28.90;;;;;;4995142;28;20759;-68
2022/03/07 11:21:55;;;;;;;0.30;0.30;;;12.00;28.80;;;;;;4994798;28;20944;-69
2022/03/07 11:24:26;;;;;;;0.30;0.30;;;11.30;29.60;;;;;;4994821;28;20224;-69
2022/03/07 11:26:55;;;;;;;0.40;0.40;;;10.20;30.60;;;;;;4994952;28;20164;-69
2022/03/07 11:29:35;;;;;;;0.98;0.98;;;8.70;35.50;;;;;;4994879;28;20186;-68
2022/03/07 11:32:07;;;;;;;0.30;0.30;;;8.40;34.70;;;;;;4994588;28;20179;-69
2022/03/07 11:34:33;;;;;;;1.35;1.25;;;8.30;36.40;;;;;;4994726;28;20226;-68
2022/03/07 11:36:59;;;;;;;0.50;0.50;;;8.30;35.80;;;;;;4994664;28;20202;-67
2022/03/07 11:39:36;;;;;;;0.40;0.40;;;8.10;37.50;;;;;;4994882;28;20234;-69
2022/03/07 11:42:38;;;;;;;0.30;0.30;;;8.20;37.00;;;;;;4994325;28;20464;-67
2022/03/07 11:45:07;;;;;;;0.30;0.30;;;7.60;35.90;;;;;;4983878;28;20221;-69
2022/03/07 11:47:38;;;;;;;0.30;0.30;;;7.60;36.20;;;;;;4994443;28;20195;-69
2022/03/07 11:50:06;;;;;;;0.40;0.40;;;7.20;36.10;;;;;;4994412;28;20172;-68
2022/03/07 11:52:31;;;;;;;0.40;0.40;;;7.20;36.50;;;;;;4994593;28;20670;-69
2022/03/07 11:54:59;;;;;;;0.40;0.40;;;7.20;36.50;;;;;;4994205;28;20201;-69
2022/03/07 11:57:37;;;;;;;0.40;0.40;;;7.10;36.70;;;;;;4994409;28;20419;-69
2022/03/07 12:00:18;;;;;;;0.40;0.40;;;6.90;39.00;;;;;;4994233;28;20191;-69
2022/03/07 12:02:53;;;;;;;0.80;0.80;;;7.10;38.10;;;;;;4994465;28;20208;-68
2022/03/07 12:05:30;;;;;;;0.40;0.40;;;7.20;37.20;;;;;;4994233;28;20152;-69
2022/03/07 12:08:08;;;;;;;1.35;1.25;;;7.10;37.40;;;;;;4994282;28;20247;-69
2022/03/07 12:10:34;;;;;;;0.40;0.40;;;7.40;37.40;;;;;;4994063;28;20176;-68
2022/03/07 12:13:08;;;;;;;0.40;0.40;;;7.00;36.60;;;;;;4994149;28;20195;-69
2022/03/07 12:15:48;;;;;;;0.40;0.40;;;7.20;37.50;;;;;;4994118;28;20497;-69
2022/03/07 12:18:15;;;;;;;0.30;0.30;;;7.40;36.90;;;;;;4994535;28;20263;-68
2022/03/07 12:20:48;;;;;;;0.40;0.40;;;7.30;36.20;;;;;;4993916;28;20171;-69
2022/03/07 12:23:19;;;;;;;0.40;0.40;;;6.50;36.50;;;;;;4993988;28;20251;-69
2022/03/07 12:25:46;;;;;;;0.32;0.32;;;6.30;37.50;;;;;;4994222;28;20626;-68
2022/03/07 12:28:11;;;;;;;0.40;0.40;;;6.70;38.40;;;;;;4976732;28;20244;-68
2022/03/07 12:30:38;;;;;;;0.30;0.30;;;7.10;38.30;;;;;;4976531;28;20631;-70
2022/03/07 12:33:09;;;;;;;0.40;0.40;;;6.90;40.00;;;;;;4976489;28;20412;-68
2022/03/07 12:35:35;;;;;;;0.30;0.30;;;6.90;37.20;;;;;;4994107;28;20172;-68
2022/03/07 12:38:04;;;;;;;0.40;0.40;;;6.90;37.10;;;;;;4994264;28;20172;-68
2022/03/07 12:40:30;;;;;;;0.65;0.65;;;6.50;37.50;;;;;;4993678;28;20172;-68
2022/03/07 12:42:55;;;;;;;0.40;0.40;;;5.70;39.30;;;;;;4993652;28;20784;-68
2022/03/07 12:45:21;;;;;;;0.40;0.40;;;6.00;42.50;;;;;;4993866;28;20219;-68
2022/03/07 12:47:52;;;;;;;0.40;0.40;;;6.20;39.10;;;;;;4994072;28;20202;-68
2022/03/07 12:50:22;;;;;;;0.40;0.40;;;6.20;38.60;;;;;;4993873;28;20169;-68